createdAt,value
2018-07-07T00:02:28.028Z,52.6
2018-07-07T00:07:27.377Z,52.6
2018-07-07T00:12:27.202Z,52.6
2018-07-07T00:17:28.176Z,52.7
2018-07-07T00:22:27.796Z,52.6
2018-07-07T00:27:28.913Z,52.6
2018-07-07T00:32:29.417Z,52.6
2018-07-07T00:37:27.987Z,52.4
2018-07-07T00:42:28.180Z,52.4
2018-07-07T00:47:28.158Z,52.4
2018-07-07T00:52:26.963Z,52.3
2018-07-07T00:57:27.230Z,52.4
2018-07-07T01:02:27.971Z,52.3
2018-07-07T01:07:28.002Z,52.2
2018-07-07T01:12:27.648Z,52.3
2018-07-07T01:17:28.138Z,52.3
2018-07-07T01:22:26.959Z,52.2
2018-07-07T01:27:27.636Z,52.1
2018-07-07T01:32:28.176Z,52.0
2018-07-07T01:37:27.918Z,52.0
2018-07-07T01:42:28.432Z,52.0
2018-07-07T01:47:28.367Z,52.1
2018-07-07T01:52:27.907Z,52.1
2018-07-07T01:57:27.341Z,52.2
2018-07-07T02:02:27.962Z,52.0
2018-07-07T02:07:27.621Z,52.0
2018-07-07T02:12:27.064Z,52.0
2018-07-07T02:17:28.060Z,52.0
2018-07-07T02:22:27.454Z,52.1
2018-07-07T02:27:27.104Z,52.1
2018-07-07T02:32:27.729Z,52.0
2018-07-07T02:37:27.524Z,52.0
2018-07-07T02:42:27.716Z,51.9
2018-07-07T02:47:28.106Z,51.8
2018-07-07T02:52:27.788Z,51.7
2018-07-07T02:57:28.002Z,51.7
2018-07-07T03:02:28.784Z,51.7
2018-07-07T03:07:28.359Z,51.5
2018-07-07T03:12:28.017Z,51.5
2018-07-07T03:17:27.996Z,51.6
2018-07-07T03:22:28.326Z,51.5
2018-07-07T03:27:27.822Z,51.5
2018-07-07T03:32:28.723Z,51.7
2018-07-07T03:37:28.066Z,51.7
2018-07-07T03:42:27.747Z,51.7
2018-07-07T03:47:28.114Z,51.6
2018-07-07T03:52:28.418Z,51.6
2018-07-07T03:57:28.139Z,51.5
2018-07-07T04:02:28.280Z,51.4
2018-07-07T04:07:28.199Z,51.4
2018-07-07T04:12:28.279Z,51.4
2018-07-07T04:17:28.127Z,51.5
2018-07-07T04:22:28.221Z,51.6
2018-07-07T04:27:29.323Z,51.5
2018-07-07T04:32:28.213Z,51.4
2018-07-07T04:37:27.839Z,51.1
2018-07-07T04:42:28.471Z,51.1
2018-07-07T04:47:28.346Z,51.0
2018-07-07T04:52:28.161Z,50.8
2018-07-07T04:57:27.574Z,50.7
2018-07-07T05:02:28.389Z,50.6
2018-07-07T05:07:28.790Z,50.6
2018-07-07T05:12:28.572Z,50.9
2018-07-07T05:17:28.358Z,50.8
2018-07-07T05:22:28.091Z,50.9
2018-07-07T05:27:27.607Z,50.9
2018-07-07T05:32:27.362Z,50.8
2018-07-07T05:37:27.957Z,50.8
2018-07-07T05:42:28.048Z,50.7
2018-07-07T05:47:28.540Z,50.6
2018-07-07T05:52:28.337Z,50.7
2018-07-07T05:57:28.028Z,50.9
2018-07-07T06:02:28.360Z,51.2
2018-07-07T06:07:28.318Z,51.2
2018-07-07T06:12:28.057Z,51.3
2018-07-07T06:17:28.965Z,51.3
2018-07-07T06:22:28.150Z,51.3
2018-07-07T06:27:27.459Z,51.3
2018-07-07T06:32:28.486Z,51.3
2018-07-07T06:37:28.100Z,51.0
2018-07-07T06:42:28.726Z,51.0
2018-07-07T06:47:28.974Z,50.9
2018-07-07T06:52:28.680Z,50.8
2018-07-07T06:57:28.067Z,51.1
2018-07-07T07:02:28.636Z,51.0
2018-07-07T07:07:27.863Z,51.0
2018-07-07T07:12:28.099Z,51.1
2018-07-07T07:17:28.245Z,51.3
2018-07-07T07:22:28.624Z,51.3
2018-07-07T07:27:27.832Z,51.7
2018-07-07T07:32:28.646Z,51.6
2018-07-07T07:37:28.100Z,51.8
2018-07-07T07:42:28.024Z,51.7
2018-07-07T07:47:28.524Z,51.8
2018-07-07T07:52:28.601Z,51.8
2018-07-07T07:57:27.779Z,51.9
2018-07-07T08:02:27.842Z,51.8
2018-07-07T08:07:28.549Z,51.7
2018-07-07T08:12:28.317Z,52.0
2018-07-07T08:17:28.097Z,51.7
2018-07-07T08:22:28.014Z,51.8
2018-07-07T08:27:28.091Z,51.7
2018-07-07T08:32:28.942Z,51.7
2018-07-07T08:37:28.704Z,51.6
2018-07-07T08:42:28.042Z,51.6
2018-07-07T08:47:28.343Z,51.6
2018-07-07T08:52:28.339Z,51.9
2018-07-07T08:57:28.394Z,51.8
2018-07-07T09:02:28.289Z,51.7
2018-07-07T09:07:28.369Z,51.9
2018-07-07T09:12:27.552Z,52.6
2018-07-07T09:17:28.974Z,52.8
2018-07-07T09:22:28.548Z,53.0
2018-07-07T09:27:29.891Z,52.8
2018-07-07T09:32:28.191Z,52.7
2018-07-07T09:37:28.940Z,52.7
2018-07-07T09:42:28.281Z,52.3
2018-07-07T09:47:28.136Z,52.2
2018-07-07T09:52:27.707Z,52.7
2018-07-07T09:57:28.182Z,53.1
2018-07-07T10:02:29.683Z,52.9
2018-07-07T10:07:28.671Z,52.4
2018-07-07T10:12:28.376Z,52.2
2018-07-07T10:17:28.152Z,52.3
2018-07-07T10:22:28.439Z,52.7
2018-07-07T10:27:27.629Z,52.6
2018-07-07T10:32:28.968Z,52.6
2018-07-07T10:37:27.936Z,52.2
2018-07-07T10:42:28.248Z,52.5
2018-07-07T10:47:28.901Z,52.5
2018-07-07T10:52:27.438Z,52.1
2018-07-07T10:57:28.042Z,51.6
2018-07-07T11:02:28.455Z,51.6
2018-07-07T11:07:28.311Z,51.6
2018-07-07T11:12:27.763Z,51.6
2018-07-07T11:17:28.659Z,51.5
2018-07-07T11:22:27.913Z,51.3
2018-07-07T11:27:28.592Z,51.8
2018-07-07T11:32:28.750Z,52.0
2018-07-07T11:37:28.384Z,51.8
2018-07-07T11:42:27.545Z,51.9
2018-07-07T11:47:28.229Z,51.6
2018-07-07T11:52:27.813Z,51.6
2018-07-07T11:57:28.965Z,51.3
2018-07-07T12:02:29.537Z,51.2
2018-07-07T12:07:28.139Z,52.0
2018-07-07T12:12:27.884Z,51.9
2018-07-07T12:17:28.316Z,52.4
2018-07-07T12:22:28.061Z,52.2
2018-07-07T12:27:28.223Z,52.8
2018-07-07T12:32:28.057Z,52.5
2018-07-07T12:37:28.630Z,51.8
2018-07-07T12:42:28.400Z,51.0
2018-07-07T12:47:28.631Z,51.7
2018-07-07T12:52:28.608Z,51.6
2018-07-07T12:57:29.252Z,51.5
2018-07-07T13:02:27.996Z,51.3
2018-07-07T13:07:28.639Z,51.5
2018-07-07T13:12:29.129Z,51.6
2018-07-07T13:17:29.517Z,50.5
2018-07-07T13:22:27.842Z,50.4
2018-07-07T13:27:27.791Z,50.5
2018-07-07T13:32:28.391Z,50.0
2018-07-07T13:37:27.814Z,50.9
2018-07-07T13:42:28.316Z,50.9
2018-07-07T13:47:28.231Z,50.5
2018-07-07T13:52:28.554Z,50.1
2018-07-07T13:57:28.821Z,49.8
2018-07-07T14:02:28.049Z,49.2
2018-07-07T14:07:28.341Z,49.7
2018-07-07T14:12:28.685Z,50.2
2018-07-07T14:17:29.684Z,48.7
2018-07-07T14:22:28.251Z,50.1
2018-07-07T14:27:28.249Z,48.5
2018-07-07T14:32:27.692Z,50.1
2018-07-07T14:37:27.645Z,49.1
2018-07-07T14:42:28.692Z,48.7
2018-07-07T14:47:28.231Z,46.6
2018-07-07T14:52:28.511Z,46.2
2018-07-07T14:57:28.065Z,43.6
2018-07-07T15:02:28.201Z,42.4
2018-07-07T15:07:27.889Z,41.2
2018-07-07T15:12:27.609Z,40.6
2018-07-07T15:17:29.444Z,41.2
2018-07-07T15:22:28.103Z,41.2
2018-07-07T15:27:28.602Z,39.9
2018-07-07T15:32:29.136Z,39.9
2018-07-07T15:37:28.374Z,45.3
2018-07-07T15:42:27.941Z,45.4
2018-07-07T15:47:28.870Z,38.1
2018-07-07T15:52:28.505Z,38.1
2018-07-07T15:57:27.514Z,36.0
2018-07-07T16:02:28.181Z,41.7
2018-07-07T16:07:28.009Z,41.7
2018-07-07T16:12:28.281Z,38.5
2018-07-07T16:17:28.351Z,36.3
2018-07-07T16:22:28.042Z,37.0
2018-07-07T16:27:27.985Z,36.2
2018-07-07T16:32:28.874Z,36.4
2018-07-07T16:37:28.631Z,36.4
2018-07-07T16:42:28.992Z,37.8
2018-07-07T16:47:27.956Z,39.5
2018-07-07T16:52:27.960Z,39.4
2018-07-07T16:57:28.475Z,42.7
2018-07-07T17:02:28.299Z,38.5
2018-07-07T17:07:29.066Z,38.5
2018-07-07T17:12:28.418Z,37.6
2018-07-07T17:17:28.494Z,37.2
2018-07-07T17:22:28.451Z,39.7
2018-07-07T17:27:28.495Z,43.1
2018-07-07T17:32:28.149Z,45.0
2018-07-07T17:37:28.343Z,45.0
2018-07-07T17:42:28.346Z,45.1
2018-07-07T17:47:27.983Z,46.0
2018-07-07T17:52:28.022Z,45.8
2018-07-07T17:57:27.996Z,45.7
2018-07-07T18:02:28.266Z,45.6
2018-07-07T18:07:28.020Z,43.2
2018-07-07T18:12:27.646Z,43.2
2018-07-07T18:17:28.548Z,50.0
2018-07-07T18:22:28.432Z,43.3
2018-07-07T18:27:27.852Z,44.7
2018-07-07T18:32:28.014Z,46.2
2018-07-07T18:37:28.481Z,46.8
2018-07-07T18:42:28.161Z,47.8
2018-07-07T18:47:28.114Z,47.9
2018-07-07T18:52:28.101Z,48.1
2018-07-07T18:57:27.508Z,48.5
2018-07-07T19:02:28.588Z,48.4
2018-07-07T19:07:28.733Z,48.8
2018-07-07T19:12:27.649Z,49.1
2018-07-07T19:17:28.072Z,49.0
2018-07-07T19:22:28.305Z,49.3
2018-07-07T19:27:27.848Z,49.6
2018-07-07T19:32:28.462Z,49.8
2018-07-07T19:37:28.687Z,50.0
2018-07-07T19:42:27.280Z,50.0
2018-07-07T19:47:27.409Z,50.0
2018-07-07T19:52:28.957Z,50.0
2018-07-07T19:57:27.680Z,49.9
2018-07-07T20:02:27.910Z,50.0
2018-07-07T20:07:28.059Z,50.1
2018-07-07T20:12:27.633Z,50.1
2018-07-07T20:17:27.627Z,50.1
2018-07-07T20:22:27.902Z,50.2
2018-07-07T20:27:27.799Z,50.2
2018-07-07T20:32:27.496Z,50.1
2018-07-07T20:37:27.559Z,50.2
2018-07-07T20:42:27.820Z,50.3
2018-07-07T20:47:28.237Z,50.3
2018-07-07T20:52:27.528Z,50.3
2018-07-07T20:57:28.041Z,50.2
2018-07-07T21:02:27.892Z,50.0
2018-07-07T21:07:28.254Z,50.1
2018-07-07T21:12:27.177Z,50.0
2018-07-07T21:17:27.567Z,49.9
2018-07-07T21:22:27.876Z,49.8
2018-07-07T21:27:28.029Z,49.9
2018-07-07T21:32:27.731Z,50.2
2018-07-07T21:37:27.789Z,50.0
2018-07-07T21:42:27.234Z,50.0
2018-07-07T21:47:27.604Z,50.1
2018-07-07T21:52:27.752Z,50.2
2018-07-07T21:57:27.209Z,50.2
2018-07-07T22:02:27.606Z,50.1
2018-07-07T22:07:29.017Z,50.3
2018-07-07T22:12:27.637Z,50.2
2018-07-07T22:23:05.623Z,50.4
2018-07-07T22:28:04.705Z,50.4
2018-07-07T22:33:04.547Z,50.6
2018-07-07T22:38:03.872Z,50.6
2018-07-07T22:43:06.022Z,50.7
2018-07-07T22:48:04.558Z,50.6
2018-07-07T22:53:03.974Z,50.8
2018-07-07T22:58:04.951Z,50.9
2018-07-07T23:03:04.018Z,50.8
2018-07-07T23:08:05.255Z,51.2
2018-07-07T23:12:27.712Z,51.1
2018-07-07T23:17:29.379Z,51.1
2018-07-07T23:22:28.219Z,51.2
2018-07-07T23:27:27.881Z,51.0
2018-07-07T23:32:28.594Z,51.1
2018-07-07T23:37:27.775Z,51.2
2018-07-07T23:42:28.084Z,51.1
2018-07-07T23:47:28.231Z,51.1
2018-07-07T23:52:28.609Z,51.1
2018-07-07T23:57:27.920Z,51.1
